createdAt,value
2017-09-18T00:02:41.107Z,1.33
2017-09-18T00:05:46.105Z,1.00
2017-09-18T00:08:53.532Z,0.90
2017-09-18T00:11:59.813Z,1.37
2017-09-18T00:15:05.596Z,1.67
2017-09-18T00:18:11.084Z,1.20
2017-09-18T00:21:16.151Z,1.43
2017-09-18T00:24:21.771Z,2.60
2017-09-18T00:27:27.073Z,1.33
2017-09-18T00:30:36.192Z,1.40
2017-09-18T00:33:41.964Z,1.40
2017-09-18T00:36:48.190Z,1.10
2017-09-18T00:39:55.039Z,1.57
2017-09-18T00:43:00.517Z,2.00
2017-09-18T00:46:07.579Z,1.20
2017-09-18T00:49:12.991Z,1.20
2017-09-18T00:52:17.994Z,2.80
2017-09-18T00:55:23.130Z,1.40
2017-09-18T00:58:28.712Z,1.30
2017-09-18T01:01:42.217Z,1.10
2017-09-18T01:04:47.792Z,0.90
2017-09-18T01:07:53.332Z,1.20
2017-09-18T01:10:58.808Z,1.10
2017-09-18T01:14:04.392Z,1.20
2017-09-18T01:17:09.672Z,1.53
2017-09-18T01:20:15.060Z,1.40
2017-09-18T01:23:20.679Z,1.47
2017-09-18T01:26:28.636Z,2.00
2017-09-18T01:29:33.801Z,2.20
2017-09-18T01:32:38.627Z,1.60
2017-09-18T01:35:43.999Z,2.60
2017-09-18T01:38:51.160Z,3.30
2017-09-18T01:41:56.228Z,3.47
2017-09-18T01:45:01.713Z,1.70
2017-09-18T01:48:12.840Z,1.50
2017-09-18T01:51:18.454Z,3.07
2017-09-18T01:54:23.906Z,2.80
2017-09-18T01:57:29.585Z,1.50
2017-09-18T02:00:34.380Z,1.50
2017-09-18T02:03:40.541Z,3.00
2017-09-18T02:06:45.698Z,1.50
2017-09-18T02:09:53.562Z,1.67
2017-09-18T02:12:59.900Z,1.50
2017-09-18T02:16:05.260Z,2.27
2017-09-18T02:19:11.543Z,1.60
2017-09-18T02:22:19.168Z,2.10
2017-09-18T02:25:24.788Z,2.50
2017-09-18T02:28:30.083Z,2.60
2017-09-18T02:31:35.803Z,2.63
2017-09-18T02:34:43.322Z,2.37
2017-09-18T02:37:49.846Z,1.77
2017-09-18T02:40:55.499Z,1.90
2017-09-18T02:44:01.415Z,5.20
2017-09-18T02:47:06.755Z,2.40
2017-09-18T02:50:14.734Z,2.00
2017-09-18T02:53:21.131Z,2.20
2017-09-18T02:56:32.253Z,2.27
2017-09-18T02:59:43.596Z,2.33
2017-09-18T03:02:50.569Z,2.20
2017-09-18T03:05:55.800Z,2.53
2017-09-18T03:09:01.784Z,1.90
2017-09-18T03:12:06.894Z,2.60
2017-09-18T03:15:16.078Z,2.63
2017-09-18T03:18:21.492Z,1.93
2017-09-18T03:21:26.495Z,1.77
2017-09-18T03:24:32.711Z,2.30
2017-09-18T03:27:39.341Z,2.20
2017-09-18T03:30:46.713Z,2.20
2017-09-18T03:33:51.604Z,2.03
2017-09-18T03:36:56.912Z,1.70
2017-09-18T03:40:02.455Z,2.00
2017-09-18T03:43:07.516Z,1.50
2017-09-18T03:46:12.832Z,3.27
2017-09-18T03:49:18.319Z,2.27
2017-09-18T03:52:24.436Z,1.90
2017-09-18T03:55:30.723Z,1.60
2017-09-18T03:58:37.126Z,1.60
2017-09-18T04:01:48.551Z,2.23
2017-09-18T04:04:53.429Z,3.17
2017-09-18T04:07:59.187Z,1.53
2017-09-18T04:11:07.904Z,1.90
2017-09-18T04:14:16.453Z,1.60
2017-09-18T04:17:22.956Z,1.50
2017-09-18T04:20:28.299Z,1.80
2017-09-18T04:23:33.725Z,1.80
2017-09-18T04:26:39.685Z,2.43
2017-09-18T04:29:44.859Z,2.80
2017-09-18T04:32:49.560Z,2.40
2017-09-18T04:35:55.238Z,2.23
2017-09-18T04:39:00.932Z,2.63
2017-09-18T04:42:06.320Z,2.50
2017-09-18T04:45:11.788Z,2.50
2017-09-18T04:48:17.019Z,3.03
2017-09-18T04:51:22.743Z,2.30
2017-09-18T04:54:27.983Z,2.53
2017-09-18T04:57:33.527Z,2.70
2017-09-18T05:00:40.276Z,2.10
2017-09-18T05:03:45.940Z,2.30
2017-09-18T05:06:53.513Z,2.60
2017-09-18T05:09:58.620Z,2.90
2017-09-18T05:13:03.924Z,3.43
2017-09-18T05:16:08.719Z,3.77
2017-09-18T05:19:19.536Z,3.93
2017-09-18T05:22:24.856Z,7.33
2017-09-18T05:25:31.647Z,3.60
2017-09-18T05:28:38.591Z,3.60
2017-09-18T05:31:50.717Z,3.07
2017-09-18T05:34:56.364Z,3.93
2017-09-18T05:38:01.192Z,4.73
2017-09-18T05:41:07.275Z,3.63
2017-09-18T05:44:12.944Z,3.53
2017-09-18T05:47:18.040Z,4.03
2017-09-18T05:50:22.995Z,4.33
2017-09-18T05:53:28.568Z,3.70
2017-09-18T05:56:34.867Z,4.27
2017-09-18T05:59:40.348Z,4.03
2017-09-18T06:02:45.448Z,5.00
2017-09-18T06:05:51.156Z,3.13
2017-09-18T06:08:56.175Z,5.90
2017-09-18T06:12:00.876Z,5.30
2017-09-18T06:15:07.556Z,3.23
2017-09-18T06:18:13.203Z,3.47
2017-09-18T06:21:17.944Z,3.50
2017-09-18T06:24:24.463Z,2.50
2017-09-18T06:27:29.295Z,5.40
2017-09-18T06:30:38.713Z,6.33
2017-09-18T06:33:44.092Z,9.10
2017-09-18T06:36:54.734Z,3.00
2017-09-18T06:40:00.513Z,3.70
2017-09-18T06:43:05.597Z,3.10
2017-09-18T06:46:13.096Z,3.70
2017-09-18T06:49:18.665Z,3.47
2017-09-18T06:52:24.264Z,3.47
2017-09-18T06:55:30.468Z,4.90
2017-09-18T06:58:42.668Z,5.47
2017-09-18T07:01:47.841Z,3.53
2017-09-18T07:04:53.724Z,4.37
2017-09-18T07:07:59.276Z,4.90
2017-09-18T07:11:04.369Z,5.83
2017-09-18T07:14:18.460Z,3.40
2017-09-18T07:17:23.932Z,6.73
2017-09-18T07:20:29.206Z,2.80
2017-09-18T07:23:34.705Z,3.00
2017-09-18T07:26:42.175Z,3.57
2017-09-18T07:29:49.235Z,3.20
2017-09-18T07:32:54.340Z,2.57
2017-09-18T07:36:00.352Z,2.80
2017-09-18T07:39:05.424Z,2.77
2017-09-18T07:42:12.017Z,4.20
2017-09-18T07:45:16.834Z,3.10
2017-09-18T07:48:21.696Z,3.70
2017-09-18T07:51:26.504Z,7.30
2017-09-18T07:54:31.940Z,3.40
2017-09-18T07:57:36.483Z,4.50
2017-09-18T08:00:41.783Z,3.30
2017-09-18T08:03:48.124Z,3.27
2017-09-18T08:06:53.869Z,4.13
2017-09-18T08:09:58.772Z,2.87
2017-09-18T08:13:04.235Z,3.67
2017-09-18T08:16:10.591Z,2.57
2017-09-18T08:19:16.068Z,3.73
2017-09-18T08:22:21.179Z,3.10
2017-09-18T08:25:25.948Z,3.10
2017-09-18T08:28:31.112Z,2.97
2017-09-18T08:31:36.496Z,2.83
2017-09-18T08:34:42.264Z,3.10
2017-09-18T08:37:47.304Z,3.07
2017-09-18T08:40:52.861Z,3.27
2017-09-18T08:43:58.835Z,3.07
2017-09-18T08:47:04.640Z,3.33
2017-09-18T08:50:09.754Z,3.00
2017-09-18T08:53:14.966Z,4.40
2017-09-18T08:56:20.443Z,2.30
2017-09-18T08:59:25.960Z,7.10
2017-09-18T09:02:31.535Z,3.27
2017-09-18T09:05:37.211Z,2.10
2017-09-18T09:08:42.576Z,3.93
2017-09-18T09:11:47.776Z,2.60
2017-09-18T09:14:52.626Z,3.27
2017-09-18T09:17:57.749Z,3.27
2017-09-18T09:21:02.687Z,2.67
2017-09-18T09:24:11.687Z,2.70
2017-09-18T09:27:17.555Z,3.23
2017-09-18T09:30:23.056Z,3.27
2017-09-18T09:33:34.240Z,2.83
2017-09-18T09:36:39.673Z,2.23
2017-09-18T09:39:44.635Z,2.30
2017-09-18T09:42:49.583Z,2.97
2017-09-18T09:45:54.722Z,2.30
2017-09-18T09:48:59.804Z,2.03
2017-09-18T09:52:04.544Z,4.37
2017-09-18T09:55:09.922Z,2.03
2017-09-18T09:58:15.556Z,2.27
2017-09-18T10:01:20.616Z,2.00
2017-09-18T10:04:26.103Z,2.03
2017-09-18T10:07:32.532Z,3.33
2017-09-18T10:10:37.401Z,2.67
2017-09-18T10:13:43.131Z,1.93
2017-09-18T10:16:50.160Z,2.90
2017-09-18T10:19:54.959Z,1.40
2017-09-18T10:23:00.076Z,2.17
2017-09-18T10:26:05.240Z,2.23
2017-09-18T10:29:10.591Z,1.43
2017-09-18T10:32:16.087Z,1.50
2017-09-18T10:35:21.234Z,1.60
2017-09-18T10:38:26.871Z,1.60
2017-09-18T10:41:32.852Z,2.00
2017-09-18T10:44:38.423Z,1.00
2017-09-18T10:47:56.156Z,1.50
2017-09-18T10:51:00.985Z,2.77
2017-09-18T10:54:06.662Z,1.50
2017-09-18T10:57:12.436Z,1.30
2017-09-18T11:00:18.066Z,1.67
2017-09-18T11:03:23.174Z,2.20
2017-09-18T11:06:40.084Z,3.10
2017-09-18T11:09:45.352Z,2.00
2017-09-18T11:12:51.148Z,1.43
2017-09-18T11:15:56.869Z,4.73
2017-09-18T11:19:02.572Z,2.93
2017-09-18T11:22:07.639Z,1.30
2017-09-18T11:25:13.376Z,1.67
2017-09-18T11:28:18.847Z,1.90
2017-09-18T11:31:24.196Z,2.90
2017-09-18T11:34:29.615Z,1.40
2017-09-18T11:37:37.388Z,1.27
2017-09-18T11:40:42.164Z,2.00
2017-09-18T11:43:47.894Z,1.53
2017-09-18T11:46:52.785Z,2.80
2017-09-18T11:49:59.147Z,3.20
2017-09-18T11:53:12.771Z,1.37
2017-09-18T11:56:17.716Z,1.50
2017-09-18T11:59:23.079Z,3.47
2017-09-18T12:02:28.751Z,2.30
2017-09-18T12:05:34.368Z,1.40
2017-09-18T12:08:41.606Z,1.43
2017-09-18T12:11:46.724Z,1.23
2017-09-18T12:14:52.424Z,1.33
2017-09-18T12:17:57.924Z,1.63
2017-09-18T12:21:04.328Z,5.17
2017-09-18T12:24:09.295Z,1.63
2017-09-18T12:27:14.181Z,1.10
2017-09-18T12:30:19.230Z,1.10
2017-09-18T12:33:24.261Z,1.23
2017-09-18T12:36:30.329Z,1.20
2017-09-18T12:39:35.268Z,0.97
2017-09-18T12:42:43.636Z,1.17
2017-09-18T12:45:48.612Z,1.37
2017-09-18T12:48:53.711Z,1.30
2017-09-18T12:51:59.952Z,1.23
2017-09-18T12:55:05.331Z,1.20
2017-09-18T12:58:10.864Z,1.83
2017-09-18T13:01:23.192Z,1.23
2017-09-18T13:04:29.428Z,1.80
2017-09-18T13:07:34.740Z,1.93
2017-09-18T13:10:40.844Z,1.30
2017-09-18T13:13:46.524Z,1.23
2017-09-18T13:16:52.403Z,1.53
2017-09-18T13:19:58.509Z,1.83
2017-09-18T13:23:06.779Z,1.57
2017-09-18T13:26:11.688Z,1.10
2017-09-18T13:29:17.088Z,0.97
2017-09-18T13:32:22.735Z,1.33
2017-09-18T13:35:28.919Z,0.93
2017-09-18T13:38:34.425Z,2.50
2017-09-18T13:41:40.801Z,0.90
2017-09-18T13:44:45.551Z,1.10
2017-09-18T13:47:50.716Z,2.70
2017-09-18T13:50:56.276Z,1.83
2017-09-18T13:54:01.597Z,0.80
2017-09-18T13:57:07.202Z,2.53
2017-09-18T14:00:12.385Z,1.10
2017-09-18T14:03:17.528Z,1.10
2017-09-18T14:06:22.657Z,1.40
2017-09-18T14:09:27.976Z,0.80
2017-09-18T14:12:33.414Z,1.00
2017-09-18T14:15:38.963Z,0.80
2017-09-18T14:18:46.488Z,1.00
2017-09-18T14:21:51.271Z,0.93
2017-09-18T14:24:56.350Z,1.20
2017-09-18T14:28:01.569Z,0.80
2017-09-18T14:31:07.000Z,1.80
2017-09-18T14:34:12.475Z,0.80
2017-09-18T14:37:17.331Z,0.97
2017-09-18T14:40:22.968Z,0.87
2017-09-18T14:43:28.279Z,1.67
2017-09-18T14:46:33.227Z,1.63
2017-09-18T14:49:38.057Z,1.17
2017-09-18T14:52:42.964Z,2.40
2017-09-18T14:55:51.316Z,0.83
2017-09-18T14:59:02.103Z,2.00
2017-09-18T15:02:08.279Z,2.57
2017-09-18T15:05:14.382Z,1.20
2017-09-18T15:08:24.531Z,2.97
2017-09-18T15:11:33.839Z,1.40
2017-09-18T15:14:41.874Z,3.00
2017-09-18T15:17:48.664Z,1.10
2017-09-18T15:20:55.607Z,1.23
2017-09-18T15:24:02.434Z,1.10
2017-09-18T15:27:10.888Z,1.20
2017-09-18T15:30:18.098Z,2.47
2017-09-18T15:33:27.639Z,1.30
2017-09-18T15:36:35.747Z,2.77
2017-09-18T15:39:41.640Z,1.00
2017-09-18T15:42:46.924Z,1.20
2017-09-18T15:45:52.070Z,0.90
2017-09-18T15:48:57.176Z,2.20
2017-09-18T15:52:02.300Z,1.10
2017-09-18T15:55:08.086Z,1.30
2017-09-18T15:58:13.725Z,0.80
2017-09-18T16:01:18.639Z,1.00
2017-09-18T16:04:24.028Z,1.47
2017-09-18T16:07:29.131Z,2.67
2017-09-18T16:10:34.452Z,6.47
2017-09-18T16:13:39.224Z,1.20
2017-09-18T16:16:44.825Z,1.23
2017-09-18T16:19:50.091Z,1.80
2017-09-18T16:22:57.279Z,6.67
2017-09-18T16:26:03.633Z,2.93
2017-09-18T16:29:09.579Z,1.57
2017-09-18T16:32:15.137Z,4.50
2017-09-18T16:35:20.541Z,1.30
2017-09-18T16:38:34.892Z,0.90
2017-09-18T16:41:39.961Z,1.87
2017-09-18T16:44:45.303Z,6.90
2017-09-18T16:47:54.093Z,1.40
2017-09-18T16:50:59.759Z,1.77
2017-09-18T16:54:09.684Z,3.40
2017-09-18T16:57:16.168Z,2.87
2017-09-18T17:00:21.476Z,4.37
2017-09-18T17:03:26.916Z,5.97
2017-09-18T17:06:31.912Z,7.70
2017-09-18T17:09:37.133Z,4.40
2017-09-18T17:12:42.922Z,6.40
2017-09-18T17:15:48.512Z,2.60
2017-09-18T17:18:54.143Z,2.67
2017-09-18T17:21:59.879Z,2.10
2017-09-18T17:25:04.673Z,1.60
2017-09-18T17:28:10.287Z,3.20
2017-09-18T17:31:15.770Z,2.00
2017-09-18T17:34:21.547Z,3.53
2017-09-18T17:37:26.823Z,4.37
2017-09-18T17:40:32.147Z,3.80
2017-09-18T17:43:37.040Z,3.37
2017-09-18T17:46:42.256Z,3.53
2017-09-18T17:49:47.187Z,1.90
2017-09-18T17:52:52.604Z,3.90
2017-09-18T17:55:58.004Z,2.10
2017-09-18T17:59:03.586Z,2.77
2017-09-18T18:02:08.735Z,4.43
2017-09-18T18:05:14.714Z,3.63
2017-09-18T18:08:20.099Z,4.50
2017-09-18T18:11:24.759Z,6.40
2017-09-18T18:14:29.604Z,7.53
2017-09-18T18:17:34.787Z,4.60
2017-09-18T18:20:40.632Z,3.37
2017-09-18T18:23:45.408Z,3.37
2017-09-18T18:26:50.704Z,2.23
2017-09-18T18:29:55.897Z,9.47
2017-09-18T18:33:01.287Z,12.43
2017-09-18T18:36:06.241Z,12.23
2017-09-18T18:39:11.692Z,9.50
2017-09-18T18:42:16.988Z,4.80
2017-09-18T18:45:22.517Z,5.70
2017-09-18T18:48:27.436Z,7.20
2017-09-18T18:51:32.321Z,3.90
2017-09-18T18:54:38.649Z,3.40
2017-09-18T18:57:43.647Z,3.10
2017-09-18T19:00:48.943Z,2.67
2017-09-18T19:03:53.603Z,4.97
2017-09-18T19:06:59.191Z,3.97
2017-09-18T19:10:04.229Z,2.33
2017-09-18T19:13:09.581Z,2.40
2017-09-18T19:16:15.151Z,1.90
2017-09-18T19:19:21.647Z,5.03
2017-09-18T19:22:27.430Z,2.33
2017-09-18T19:25:33.040Z,2.17
2017-09-18T19:28:38.092Z,2.57
2017-09-18T19:31:43.188Z,4.10
2017-09-18T19:34:48.752Z,3.90
2017-09-18T19:37:54.268Z,8.87
2017-09-18T19:40:59.261Z,3.13
2017-09-18T19:44:05.792Z,3.30
2017-09-18T19:47:11.305Z,2.80
2017-09-18T19:50:18.955Z,2.57
2017-09-18T19:53:24.724Z,2.13
2017-09-18T19:56:36.583Z,1.67
2017-09-18T19:59:47.650Z,1.33
2017-09-18T20:02:52.547Z,1.90
2017-09-18T20:06:04.381Z,1.80
2017-09-18T20:09:10.989Z,2.50
2017-09-18T20:12:17.205Z,3.03
2017-09-18T20:15:22.186Z,3.20
2017-09-18T20:18:27.472Z,3.77
2017-09-18T20:21:32.260Z,2.93
2017-09-18T20:24:37.713Z,4.60
2017-09-18T20:27:42.419Z,6.60
2017-09-18T20:30:47.239Z,1.90
2017-09-18T20:33:53.500Z,1.90
2017-09-18T20:37:01.481Z,3.00
2017-09-18T20:40:06.268Z,3.10
2017-09-18T20:43:13.010Z,4.30
2017-09-18T20:46:21.820Z,4.93
2017-09-18T20:49:31.060Z,2.60
2017-09-18T20:52:36.459Z,2.60
2017-09-18T20:55:44.029Z,3.13
2017-09-18T20:58:50.859Z,2.80
2017-09-18T21:01:55.931Z,3.70
2017-09-18T21:05:01.764Z,6.00
2017-09-18T21:08:06.583Z,8.90
2017-09-18T21:11:11.779Z,15.70
2017-09-18T21:14:19.212Z,17.33
2017-09-18T21:17:26.068Z,9.53
2017-09-18T21:20:31.659Z,7.73
2017-09-18T21:23:38.402Z,12.80
2017-09-18T21:26:45.268Z,11.77
2017-09-18T21:29:50.587Z,8.77
2017-09-18T21:32:55.740Z,5.00
2017-09-18T21:36:00.663Z,5.43
2017-09-18T21:39:08.394Z,8.40
2017-09-18T21:42:14.960Z,20.93
2017-09-18T21:45:20.344Z,17.47
2017-09-18T21:48:26.092Z,14.13
2017-09-18T21:51:31.100Z,12.23
2017-09-18T21:54:36.576Z,10.57
2017-09-18T21:57:41.833Z,6.80
2017-09-18T22:00:46.723Z,4.57
2017-09-18T22:03:51.980Z,5.27
2017-09-18T22:06:57.100Z,7.50
2017-09-18T22:10:02.317Z,6.90
2017-09-18T22:13:07.480Z,4.93
2017-09-18T22:16:13.068Z,6.63
2017-09-18T22:19:18.075Z,3.80
2017-09-18T22:22:23.756Z,10.43
2017-09-18T22:25:28.464Z,9.43
2017-09-18T22:28:33.917Z,8.93
2017-09-18T22:31:39.452Z,7.80
2017-09-18T22:34:44.948Z,6.30
2017-09-18T22:37:50.051Z,5.53
2017-09-18T22:40:55.356Z,7.83
2017-09-18T22:44:00.376Z,7.20
2017-09-18T22:47:05.600Z,4.43
2017-09-18T22:50:11.135Z,2.70
2017-09-18T22:53:16.927Z,2.20
2017-09-18T22:56:22.400Z,2.37
2017-09-18T22:59:28.316Z,2.90
2017-09-18T23:02:34.032Z,7.23
2017-09-18T23:05:39.946Z,6.50
2017-09-18T23:08:45.629Z,6.53
2017-09-18T23:11:51.000Z,5.07
2017-09-18T23:14:56.435Z,6.50
2017-09-18T23:18:01.876Z,5.03
2017-09-18T23:21:07.473Z,3.27
2017-09-18T23:24:13.011Z,3.43
2017-09-18T23:27:19.505Z,3.40
2017-09-18T23:30:25.323Z,2.13
2017-09-18T23:33:30.230Z,3.93
2017-09-18T23:36:35.727Z,3.10
2017-09-18T23:39:41.296Z,3.80
2017-09-18T23:42:46.808Z,3.73
2017-09-18T23:45:52.628Z,1.83
2017-09-18T23:48:57.495Z,3.13
2017-09-18T23:52:02.843Z,2.00
2017-09-18T23:55:08.281Z,2.47
2017-09-18T23:58:14.842Z,3.23
